Barbados Meteorological Services
Auto gathered TAF list
Powered by Apparatus software
For Flight WS2513
Contact Number 1-(246)-535-0021/2/3/4/5/6
WEB: http://www.barbadosweather.org

**********************************************

2018/04/20 12:11
TAF TXKF 201200Z 2012/2112 23015KT 9999 SCT015 BKN300 PROB40
TEMPO 2012/2018 VCSH SCT009 BKN012 PROB30
TEMPO 2012/2015 23015G25KT 8000 -SHRA SCT008CB BKN012
BECMG 2018/2021 28012KT
BECMG 2021/2024 33015KT


**********************************************
2018/04/20 12:20
TAF TLPL 201100Z 2012/2112 09017KT 9999 SCT025
TEMPO 2018/2112 SHRA BKN018TCU


**********************************************
2018/04/20 12:54
TAF TJSJ 201140Z 2012/2112 11005KT P6SM FEW030 FEW050
FM201300 08012KT P6SM FEW030 SCT050
FM201630 08015KT P6SM VCSH SCT025 SCT050
FM202300 11005KT P6SM SCT030


**********************************************
2018/04/20 10:57
TAF
AMD TAF
AMD TFFR 201053Z 2010/2106 CNL


**********************************************
2018/04/20 12:10
TAF TBPB 201100Z 2012/2112 10015KT 9999 SCT020 PROB30
TEMPO 2014/2022 SHRA BKN014


**********************************************
2018/04/20 12:48
TAF TAPA 201100Z 2012/2112 10014KT 9999 SCT022 PROB40
TEMPO 2012/2023 SHRA


**********************************************
2018/04/20 15:08
TAF
AMD KPHL 201500Z 2015/2118 32011G19KT P6SM FEW050
FM202200 33012KT P6SM SCT060
FM210300 32008KT P6SM SCT250


**********************************************
2018/04/20 13:15
TAF
AMD KORF 201313Z 2013/2112 34012G20KT P6SM SKC
FM201700 36009KT P6SM SKC
FM202200 02005KT P6SM SKC


**********************************************
2018/04/20 16:49
TAF
AMD KJFK 201540Z 2016/2118 32017G25KT P6SM FEW050
FM201900 32017G24KT P6SM SCT050
FM210300 33012KT P6SM SKC
FM210700 32010KT P6SM SKC


**********************************************
2018/04/20 15:54
TAF
AMD KIAD 201453Z 2015/2118 32014G25KT P6SM SKC
FM202300 33011G18KT P6SM SKC
FM210100 33009KT P6SM SKC
FM210500 VRB03KT P6SM SKC


**********************************************
2018/04/20 16:42
TAF
AMD KEWR 201540Z 2016/2118 31017G25KT P6SM FEW050
FM201900 32017G25KT P6SM SCT050
FM210300 32012KT P6SM SKC
FM210700 32008KT P6SM SKC


**********************************************
2018/04/20 15:08
TAF
AMD KCHS 201500Z 2015/2112 07012G20KT P6SM FEW250
FM201700 06011KT P6SM SKC
FM202300 07006KT P6SM SKC


**********************************************
2018/04/20 15:21
TAF
AMD KBOS 201511Z 2015/2118 32014G24KT P6SM SCT045 SCT070 BKN250
FM210100 31010KT P6SM FEW070
FM211500 32010KT P6SM FEW250


**********************************************
2018/04/20 15:52
TAF CYYZ 201443Z 2015/2118 30012G22KT P6SM FEW030
BECMG 2015/2017 33015G25KT
BECMG 2017/2019 34012G22KT
FM210300 32010KT P6SM SKC
BECMG 2103/2105 32008KT
BECMG 2113/2115 35008KT
RMK NXT FCST BY 201800Z


**********************************************
2018/04/20 15:42
TAF CYUL 201438Z 2015/2112 28012G22KT P6SM BKN030
TEMPO 2015/2022 P6SM -SHRA
BECMG 2015/2017 28015G25KT
FM202200 31013G23KT P6SM BKN040
FM210400 31012KT P6SM FEW030
RMK NXT FCST BY 201800Z


**********************************************
2018/04/20 15:42
TAF CYOW 201438Z 2015/2112 31015G25KT P6SM BKN030
BECMG 2021/2023 32012G22KT
BECMG 2100/2102 32010KT
FM210500 31008KT P6SM FEW025 PROB30 2108/2112 3/4SM BR
RMK NXT FCST BY 201800Z


**********************************************
2018/04/20 12:42
TAF CYMX 201138Z 2012/2112 30008KT P6SM BKN060
TEMPO 2012/2016 P6SM -SHSN
BECMG 2012/2013 33008G18KT
FM201600 33008G18KT P6SM -SHRASN BKN030
FM202000 33008G18KT P6SM BKN040
FM210000 31008KT P6SM BKN030
FM210400 31005KT P6SM FEW030
RMK NXT FCST BY 201800Z


**********************************************